sensor_id;sensor_type;location;lat;lon;timestamp;P1;durP1;ratioP1;P2;durP2;ratioP2
3589;SDS011;1809;48.470;9.226;2023-07-29T00:00:21;5.53;;;5.03;;
3589;SDS011;1809;48.470;9.226;2023-07-29T00:02:46;10.10;;;5.60;;
3589;SDS011;1809;48.470;9.226;2023-07-29T00:05:12;5.17;;;4.67;;
3589;SDS011;1809;48.470;9.226;2023-07-29T00:07:37;3.13;;;3.03;;
3589;SDS011;1809;48.470;9.226;2023-07-29T00:10:03;3.50;;;3.17;;
3589;SDS011;1809;48.470;9.226;2023-07-29T00:12:28;4.30;;;4.00;;
3589;SDS011;1809;48.470;9.226;2023-07-29T00:14:54;4.47;;;4.07;;
3589;SDS011;1809;48.470;9.226;2023-07-29T00:17:20;8.33;;;3.27;;
3589;SDS011;1809;48.470;9.226;2023-07-29T00:19:46;2.37;;;2.27;;
3589;SDS011;1809;48.470;9.226;2023-07-29T00:22:11;3.90;;;2.80;;
3589;SDS011;1809;48.470;9.226;2023-07-29T00:24:37;4.53;;;2.63;;
3589;SDS011;1809;48.470;9.226;2023-07-29T00:27:02;3.20;;;3.00;;
3589;SDS011;1809;48.470;9.226;2023-07-29T00:29:28;3.20;;;3.00;;
3589;SDS011;1809;48.470;9.226;2023-07-29T00:31:53;2.40;;;2.30;;
3589;SDS011;1809;48.470;9.226;2023-07-29T00:34:19;2.70;;;2.50;;
3589;SDS011;1809;48.470;9.226;2023-07-29T00:36:45;2.60;;;2.50;;
3589;SDS011;1809;48.470;9.226;2023-07-29T00:39:11;3.63;;;3.10;;
3589;SDS011;1809;48.470;9.226;2023-07-29T00:41:36;3.40;;;3.10;;
3589;SDS011;1809;48.470;9.226;2023-07-29T00:44:02;3.50;;;2.93;;
3589;SDS011;1809;48.470;9.226;2023-07-29T00:46:28;3.13;;;2.93;;
3589;SDS011;1809;48.470;9.226;2023-07-29T00:48:54;9.53;;;2.77;;
3589;SDS011;1809;48.470;9.226;2023-07-29T00:51:20;3.93;;;2.70;;
3589;SDS011;1809;48.470;9.226;2023-07-29T00:53:46;2.50;;;2.30;;
3589;SDS011;1809;48.470;9.226;2023-07-29T00:56:12;4.47;;;3.20;;
3589;SDS011;1809;48.470;9.226;2023-07-29T00:58:38;3.10;;;2.90;;
3589;SDS011;1809;48.470;9.226;2023-07-29T01:01:03;3.03;;;2.87;;
3589;SDS011;1809;48.470;9.226;2023-07-29T01:03:29;2.60;;;2.50;;
3589;SDS011;1809;48.470;9.226;2023-07-29T01:14:00;10.23;;;3.27;;
3589;SDS011;1809;48.470;9.226;2023-07-29T01:16:42;3.57;;;3.27;;
3589;SDS011;1809;48.470;9.226;2023-07-29T01:22:02;2.80;;;2.70;;
3589;SDS011;1809;48.470;9.226;2023-07-29T01:24:28;2.47;;;2.37;;
3589;SDS011;1809;48.470;9.226;2023-07-29T01:26:54;2.93;;;2.83;;
3589;SDS011;1809;48.470;9.226;2023-07-29T01:29:19;4.40;;;3.50;;
3589;SDS011;1809;48.470;9.226;2023-07-29T01:31:44;3.63;;;3.33;;
3589;SDS011;1809;48.470;9.226;2023-07-29T01:34:18;3.10;;;2.90;;
3589;SDS011;1809;48.470;9.226;2023-07-29T01:36:51;3.37;;;3.10;;
3589;SDS011;1809;48.470;9.226;2023-07-29T01:39:19;3.80;;;3.50;;
3589;SDS011;1809;48.470;9.226;2023-07-29T01:41:47;3.43;;;3.23;;
3589;SDS011;1809;48.470;9.226;2023-07-29T01:44:13;5.63;;;4.30;;
3589;SDS011;1809;48.470;9.226;2023-07-29T01:46:39;4.53;;;3.77;;
3589;SDS011;1809;48.470;9.226;2023-07-29T01:49:05;3.37;;;3.27;;
3589;SDS011;1809;48.470;9.226;2023-07-29T01:51:30;3.20;;;2.97;;
3589;SDS011;1809;48.470;9.226;2023-07-29T01:53:55;3.33;;;3.03;;
3589;SDS011;1809;48.470;9.226;2023-07-29T01:56:21;3.37;;;3.07;;
3589;SDS011;1809;48.470;9.226;2023-07-29T01:58:46;3.60;;;3.30;;
3589;SDS011;1809;48.470;9.226;2023-07-29T02:01:12;3.33;;;3.13;;
3589;SDS011;1809;48.470;9.226;2023-07-29T02:03:37;3.53;;;3.33;;
3589;SDS011;1809;48.470;9.226;2023-07-29T02:06:02;3.60;;;3.40;;
3589;SDS011;1809;48.470;9.226;2023-07-29T02:08:28;3.83;;;3.50;;
3589;SDS011;1809;48.470;9.226;2023-07-29T02:10:53;3.77;;;3.57;;
3589;SDS011;1809;48.470;9.226;2023-07-29T02:13:19;3.90;;;3.07;;
3589;SDS011;1809;48.470;9.226;2023-07-29T02:15:44;3.30;;;3.00;;
3589;SDS011;1809;48.470;9.226;2023-07-29T02:18:09;3.87;;;3.57;;
3589;SDS011;1809;48.470;9.226;2023-07-29T02:20:35;4.30;;;4.00;;
3589;SDS011;1809;48.470;9.226;2023-07-29T02:23:00;3.83;;;3.53;;
3589;SDS011;1809;48.470;9.226;2023-07-29T02:25:25;3.33;;;3.03;;
3589;SDS011;1809;48.470;9.226;2023-07-29T02:27:51;3.00;;;2.80;;
3589;SDS011;1809;48.470;9.226;2023-07-29T02:30:16;3.50;;;3.20;;
3589;SDS011;1809;48.470;9.226;2023-07-29T02:32:41;3.53;;;3.23;;
3589;SDS011;1809;48.470;9.226;2023-07-29T02:35:06;3.20;;;3.00;;
3589;SDS011;1809;48.470;9.226;2023-07-29T02:37:32;3.10;;;3.00;;
3589;SDS011;1809;48.470;9.226;2023-07-29T02:39:57;3.10;;;2.87;;
3589;SDS011;1809;48.470;9.226;2023-07-29T02:42:23;2.87;;;2.67;;
3589;SDS011;1809;48.470;9.226;2023-07-29T02:44:48;3.30;;;3.00;;
3589;SDS011;1809;48.470;9.226;2023-07-29T02:47:13;3.67;;;3.37;;
3589;SDS011;1809;48.470;9.226;2023-07-29T02:49:39;3.27;;;3.07;;
3589;SDS011;1809;48.470;9.226;2023-07-29T02:52:04;2.83;;;2.63;;
3589;SDS011;1809;48.470;9.226;2023-07-29T02:54:30;2.70;;;2.57;;
3589;SDS011;1809;48.470;9.226;2023-07-29T02:56:55;3.23;;;3.03;;
3589;SDS011;1809;48.470;9.226;2023-07-29T02:59:20;3.50;;;3.20;;
3589;SDS011;1809;48.470;9.226;2023-07-29T03:01:45;3.60;;;3.00;;
3589;SDS011;1809;48.470;9.226;2023-07-29T03:04:11;3.07;;;2.63;;
3589;SDS011;1809;48.470;9.226;2023-07-29T03:06:38;3.07;;;2.87;;
3589;SDS011;1809;48.470;9.226;2023-07-29T03:09:03;2.50;;;2.40;;
3589;SDS011;1809;48.470;9.226;2023-07-29T03:11:30;3.33;;;3.13;;
3589;SDS011;1809;48.470;9.226;2023-07-29T03:13:56;3.57;;;3.37;;
3589;SDS011;1809;48.470;9.226;2023-07-29T03:16:21;3.10;;;2.90;;
3589;SDS011;1809;48.470;9.226;2023-07-29T03:18:47;2.97;;;2.40;;
3589;SDS011;1809;48.470;9.226;2023-07-29T03:21:13;2.93;;;2.83;;
3589;SDS011;1809;48.470;9.226;2023-07-29T03:23:39;2.77;;;2.60;;
3589;SDS011;1809;48.470;9.226;2023-07-29T03:26:04;3.43;;;3.23;;
3589;SDS011;1809;48.470;9.226;2023-07-29T03:28:35;3.53;;;3.23;;
3589;SDS011;1809;48.470;9.226;2023-07-29T03:31:10;2.90;;;2.70;;
3589;SDS011;1809;48.470;9.226;2023-07-29T03:33:36;4.63;;;3.00;;
3589;SDS011;1809;48.470;9.226;2023-07-29T03:36:01;3.20;;;3.00;;
3589;SDS011;1809;48.470;9.226;2023-07-29T03:38:26;2.80;;;2.60;;
3589;SDS011;1809;48.470;9.226;2023-07-29T03:40:52;2.50;;;2.30;;
3589;SDS011;1809;48.470;9.226;2023-07-29T03:43:18;2.73;;;2.50;;
3589;SDS011;1809;48.470;9.226;2023-07-29T03:45:43;2.83;;;2.57;;
3589;SDS011;1809;48.470;9.226;2023-07-29T03:48:09;3.30;;;3.10;;
3589;SDS011;1809;48.470;9.226;2023-07-29T03:50:35;2.50;;;2.40;;
3589;SDS011;1809;48.470;9.226;2023-07-29T03:53:01;2.63;;;2.43;;
3589;SDS011;1809;48.470;9.226;2023-07-29T03:55:26;3.50;;;3.30;;
3589;SDS011;1809;48.470;9.226;2023-07-29T03:57:52;4.30;;;2.67;;
3589;SDS011;1809;48.470;9.226;2023-07-29T04:00:17;3.40;;;3.10;;
3589;SDS011;1809;48.470;9.226;2023-07-29T04:02:43;2.50;;;2.40;;
3589;SDS011;1809;48.470;9.226;2023-07-29T04:05:10;3.13;;;3.00;;
3589;SDS011;1809;48.470;9.226;2023-07-29T04:07:35;3.47;;;2.90;;
3589;SDS011;1809;48.470;9.226;2023-07-29T04:10:01;4.10;;;2.30;;
3589;SDS011;1809;48.470;9.226;2023-07-29T04:12:27;2.80;;;2.60;;
3589;SDS011;1809;48.470;9.226;2023-07-29T04:14:52;10.37;;;2.33;;
3589;SDS011;1809;48.470;9.226;2023-07-29T04:17:18;2.90;;;2.70;;
3589;SDS011;1809;48.470;9.226;2023-07-29T04:19:43;2.50;;;2.13;;
3589;SDS011;1809;48.470;9.226;2023-07-29T04:22:09;2.97;;;2.77;;
3589;SDS011;1809;48.470;9.226;2023-07-29T04:24:34;3.50;;;2.30;;
3589;SDS011;1809;48.470;9.226;2023-07-29T04:26:59;3.83;;;2.30;;
3589;SDS011;1809;48.470;9.226;2023-07-29T04:29:25;1.83;;;1.73;;
3589;SDS011;1809;48.470;9.226;2023-07-29T04:31:50;2.23;;;2.13;;
3589;SDS011;1809;48.470;9.226;2023-07-29T04:34:16;3.00;;;2.10;;
3589;SDS011;1809;48.470;9.226;2023-07-29T04:36:42;2.80;;;2.00;;
3589;SDS011;1809;48.470;9.226;2023-07-29T04:39:08;2.80;;;2.70;;
3589;SDS011;1809;48.470;9.226;2023-07-29T04:41:34;2.00;;;1.90;;
3589;SDS011;1809;48.470;9.226;2023-07-29T04:43:59;4.23;;;2.33;;
3589;SDS011;1809;48.470;9.226;2023-07-29T04:46:24;3.63;;;1.93;;
3589;SDS011;1809;48.470;9.226;2023-07-29T04:48:50;3.00;;;2.80;;
3589;SDS011;1809;48.470;9.226;2023-07-29T04:51:15;2.57;;;2.30;;
3589;SDS011;1809;48.470;9.226;2023-07-29T04:53:40;5.23;;;2.53;;
3589;SDS011;1809;48.470;9.226;2023-07-29T04:56:06;2.53;;;2.43;;
3589;SDS011;1809;48.470;9.226;2023-07-29T04:58:31;2.33;;;2.23;;
3589;SDS011;1809;48.470;9.226;2023-07-29T05:00:59;2.50;;;2.10;;
3589;SDS011;1809;48.470;9.226;2023-07-29T05:03:25;3.67;;;2.70;;
3589;SDS011;1809;48.470;9.226;2023-07-29T05:05:51;1.73;;;1.63;;
3589;SDS011;1809;48.470;9.226;2023-07-29T05:08:18;2.33;;;2.13;;
3589;SDS011;1809;48.470;9.226;2023-07-29T05:10:43;3.53;;;2.00;;
3589;SDS011;1809;48.470;9.226;2023-07-29T05:13:09;5.00;;;2.10;;
3589;SDS011;1809;48.470;9.226;2023-07-29T05:15:34;1.93;;;1.63;;
3589;SDS011;1809;48.470;9.226;2023-07-29T05:17:59;2.10;;;2.00;;
3589;SDS011;1809;48.470;9.226;2023-07-29T05:20:24;4.97;;;2.00;;
3589;SDS011;1809;48.470;9.226;2023-07-29T05:22:50;2.00;;;1.90;;
3589;SDS011;1809;48.470;9.226;2023-07-29T05:25:15;2.13;;;1.93;;
3589;SDS011;1809;48.470;9.226;2023-07-29T05:27:40;4.10;;;1.83;;
3589;SDS011;1809;48.470;9.226;2023-07-29T05:30:06;2.13;;;1.93;;
3589;SDS011;1809;48.470;9.226;2023-07-29T05:32:32;2.27;;;2.07;;
3589;SDS011;1809;48.470;9.226;2023-07-29T05:34:58;4.53;;;1.70;;
3589;SDS011;1809;48.470;9.226;2023-07-29T05:37:23;2.03;;;1.93;;
3589;SDS011;1809;48.470;9.226;2023-07-29T05:39:48;2.37;;;2.27;;
3589;SDS011;1809;48.470;9.226;2023-07-29T05:42:14;1.70;;;1.60;;
3589;SDS011;1809;48.470;9.226;2023-07-29T05:44:39;3.60;;;2.00;;
3589;SDS011;1809;48.470;9.226;2023-07-29T05:47:04;2.30;;;2.10;;
3589;SDS011;1809;48.470;9.226;2023-07-29T05:49:30;1.80;;;1.70;;
3589;SDS011;1809;48.470;9.226;2023-07-29T05:51:55;3.30;;;1.90;;
3589;SDS011;1809;48.470;9.226;2023-07-29T05:54:21;1.97;;;1.87;;
3589;SDS011;1809;48.470;9.226;2023-07-29T05:56:46;1.77;;;1.67;;
3589;SDS011;1809;48.470;9.226;2023-07-29T05:59:12;2.20;;;2.10;;
3589;SDS011;1809;48.470;9.226;2023-07-29T06:01:37;2.13;;;2.03;;
3589;SDS011;1809;48.470;9.226;2023-07-29T06:04:03;2.97;;;2.03;;
3589;SDS011;1809;48.470;9.226;2023-07-29T06:06:28;2.07;;;1.97;;
3589;SDS011;1809;48.470;9.226;2023-07-29T06:08:53;2.77;;;1.80;;
3589;SDS011;1809;48.470;9.226;2023-07-29T06:11:19;2.60;;;2.03;;
3589;SDS011;1809;48.470;9.226;2023-07-29T06:13:45;2.83;;;1.83;;
3589;SDS011;1809;48.470;9.226;2023-07-29T06:16:12;3.37;;;1.97;;
3589;SDS011;1809;48.470;9.226;2023-07-29T06:18:37;3.70;;;1.90;;
3589;SDS011;1809;48.470;9.226;2023-07-29T06:21:03;1.63;;;1.53;;
3589;SDS011;1809;48.470;9.226;2023-07-29T06:23:32;3.50;;;1.93;;
3589;SDS011;1809;48.470;9.226;2023-07-29T06:25:57;2.00;;;1.50;;
3589;SDS011;1809;48.470;9.226;2023-07-29T06:28:24;7.13;;;2.00;;
3589;SDS011;1809;48.470;9.226;2023-07-29T06:30:49;1.87;;;1.77;;
3589;SDS011;1809;48.470;9.226;2023-07-29T06:33:14;1.40;;;1.30;;
3589;SDS011;1809;48.470;9.226;2023-07-29T06:35:41;4.50;;;2.40;;
3589;SDS011;1809;48.470;9.226;2023-07-29T06:38:06;8.00;;;2.37;;
3589;SDS011;1809;48.470;9.226;2023-07-29T06:40:31;1.90;;;1.70;;
3589;SDS011;1809;48.470;9.226;2023-07-29T06:42:57;4.20;;;1.60;;
3589;SDS011;1809;48.470;9.226;2023-07-29T06:45:22;1.90;;;1.80;;
3589;SDS011;1809;48.470;9.226;2023-07-29T06:47:47;2.70;;;1.60;;
3589;SDS011;1809;48.470;9.226;2023-07-29T06:50:13;4.30;;;1.80;;
3589;SDS011;1809;48.470;9.226;2023-07-29T06:52:38;2.30;;;2.10;;
3589;SDS011;1809;48.470;9.226;2023-07-29T06:55:05;2.37;;;2.17;;
3589;SDS011;1809;48.470;9.226;2023-07-29T06:57:31;4.17;;;2.90;;
3589;SDS011;1809;48.470;9.226;2023-07-29T06:59:56;3.80;;;3.50;;
3589;SDS011;1809;48.470;9.226;2023-07-29T07:02:21;2.90;;;2.70;;
3589;SDS011;1809;48.470;9.226;2023-07-29T07:04:47;3.70;;;3.30;;
3589;SDS011;1809;48.470;9.226;2023-07-29T07:07:12;3.30;;;3.10;;
3589;SDS011;1809;48.470;9.226;2023-07-29T07:09:37;3.97;;;2.70;;
3589;SDS011;1809;48.470;9.226;2023-07-29T07:12:03;2.00;;;1.90;;
3589;SDS011;1809;48.470;9.226;2023-07-29T07:14:31;6.00;;;2.50;;
3589;SDS011;1809;48.470;9.226;2023-07-29T07:16:56;2.33;;;2.23;;
3589;SDS011;1809;48.470;9.226;2023-07-29T07:19:22;2.20;;;2.00;;
3589;SDS011;1809;48.470;9.226;2023-07-29T07:21:47;1.97;;;1.87;;
3589;SDS011;1809;48.470;9.226;2023-07-29T07:24:12;2.20;;;1.80;;
3589;SDS011;1809;48.470;9.226;2023-07-29T07:26:38;2.03;;;1.93;;
3589;SDS011;1809;48.470;9.226;2023-07-29T07:29:03;2.73;;;2.57;;
3589;SDS011;1809;48.470;9.226;2023-07-29T07:31:32;5.10;;;2.87;;
3589;SDS011;1809;48.470;9.226;2023-07-29T07:33:58;3.80;;;2.90;;
3589;SDS011;1809;48.470;9.226;2023-07-29T07:36:24;2.50;;;2.33;;
3589;SDS011;1809;48.470;9.226;2023-07-29T07:38:49;5.90;;;2.47;;
3589;SDS011;1809;48.470;9.226;2023-07-29T07:41:14;3.03;;;2.70;;
3589;SDS011;1809;48.470;9.226;2023-07-29T07:43:40;1.87;;;1.77;;
3589;SDS011;1809;48.470;9.226;2023-07-29T07:46:06;2.20;;;2.10;;
3589;SDS011;1809;48.470;9.226;2023-07-29T07:48:31;2.00;;;1.90;;
3589;SDS011;1809;48.470;9.226;2023-07-29T07:50:59;2.53;;;2.43;;
3589;SDS011;1809;48.470;9.226;2023-07-29T07:53:24;12.63;;;3.07;;
3589;SDS011;1809;48.470;9.226;2023-07-29T07:55:52;2.43;;;2.20;;
3589;SDS011;1809;48.470;9.226;2023-07-29T07:58:17;1.67;;;1.57;;
3589;SDS011;1809;48.470;9.226;2023-07-29T08:00:43;2.13;;;1.43;;
3589;SDS011;1809;48.470;9.226;2023-07-29T08:03:11;1.47;;;1.47;;
3589;SDS011;1809;48.470;9.226;2023-07-29T08:05:36;1.23;;;1.20;;
3589;SDS011;1809;48.470;9.226;2023-07-29T08:08:01;2.60;;;1.87;;
3589;SDS011;1809;48.470;9.226;2023-07-29T08:10:27;2.50;;;2.27;;
3589;SDS011;1809;48.470;9.226;2023-07-29T08:12:52;2.20;;;1.83;;
3589;SDS011;1809;48.470;9.226;2023-07-29T08:15:20;1.57;;;1.50;;
3589;SDS011;1809;48.470;9.226;2023-07-29T08:17:48;1.60;;;1.50;;
3589;SDS011;1809;48.470;9.226;2023-07-29T08:20:19;2.30;;;2.20;;
3589;SDS011;1809;48.470;9.226;2023-07-29T08:22:44;2.37;;;2.27;;
3589;SDS011;1809;48.470;9.226;2023-07-29T08:25:10;2.60;;;2.23;;
3589;SDS011;1809;48.470;9.226;2023-07-29T08:27:35;1.93;;;1.83;;
3589;SDS011;1809;48.470;9.226;2023-07-29T08:30:00;2.73;;;2.53;;
3589;SDS011;1809;48.470;9.226;2023-07-29T08:32:26;2.77;;;2.27;;
3589;SDS011;1809;48.470;9.226;2023-07-29T08:34:51;2.50;;;2.40;;
3589;SDS011;1809;48.470;9.226;2023-07-29T08:37:16;2.70;;;2.50;;
3589;SDS011;1809;48.470;9.226;2023-07-29T08:39:41;2.73;;;2.53;;
3589;SDS011;1809;48.470;9.226;2023-07-29T08:42:07;2.53;;;2.30;;
3589;SDS011;1809;48.470;9.226;2023-07-29T08:44:36;2.63;;;2.43;;
3589;SDS011;1809;48.470;9.226;2023-07-29T08:47:08;3.43;;;2.87;;
3589;SDS011;1809;48.470;9.226;2023-07-29T08:49:34;3.17;;;2.50;;
3589;SDS011;1809;48.470;9.226;2023-07-29T08:52:00;3.37;;;3.17;;
3589;SDS011;1809;48.470;9.226;2023-07-29T08:54:26;4.20;;;2.83;;
3589;SDS011;1809;48.470;9.226;2023-07-29T08:56:51;3.30;;;2.70;;
3589;SDS011;1809;48.470;9.226;2023-07-29T08:59:20;2.80;;;2.40;;
3589;SDS011;1809;48.470;9.226;2023-07-29T09:01:46;3.73;;;3.37;;
3589;SDS011;1809;48.470;9.226;2023-07-29T09:04:12;4.10;;;3.40;;
3589;SDS011;1809;48.470;9.226;2023-07-29T09:06:37;2.70;;;2.60;;
3589;SDS011;1809;48.470;9.226;2023-07-29T09:09:07;3.73;;;3.43;;
3589;SDS011;1809;48.470;9.226;2023-07-29T09:11:35;3.20;;;3.00;;
3589;SDS011;1809;48.470;9.226;2023-07-29T09:14:01;5.23;;;2.33;;
3589;SDS011;1809;48.470;9.226;2023-07-29T09:16:26;3.03;;;2.83;;
3589;SDS011;1809;48.470;9.226;2023-07-29T09:18:52;5.70;;;3.10;;
3589;SDS011;1809;48.470;9.226;2023-07-29T09:21:18;2.63;;;2.53;;
3589;SDS011;1809;48.470;9.226;2023-07-29T09:23:48;3.40;;;2.70;;
3589;SDS011;1809;48.470;9.226;2023-07-29T09:26:18;4.30;;;3.90;;
3589;SDS011;1809;48.470;9.226;2023-07-29T09:28:50;3.30;;;3.10;;
3589;SDS011;1809;48.470;9.226;2023-07-29T09:31:23;2.70;;;2.50;;
3589;SDS011;1809;48.470;9.226;2023-07-29T09:33:49;2.60;;;2.40;;
3589;SDS011;1809;48.470;9.226;2023-07-29T09:36:26;2.43;;;2.33;;
3589;SDS011;1809;48.470;9.226;2023-07-29T09:38:52;3.00;;;2.80;;
3589;SDS011;1809;48.470;9.226;2023-07-29T09:41:20;3.00;;;2.50;;
3589;SDS011;1809;48.470;9.226;2023-07-29T09:43:47;3.10;;;2.90;;
3589;SDS011;1809;48.470;9.226;2023-07-29T09:46:12;3.30;;;3.10;;
3589;SDS011;1809;48.470;9.226;2023-07-29T09:48:38;3.40;;;3.10;;
3589;SDS011;1809;48.470;9.226;2023-07-29T09:51:10;2.63;;;2.53;;
3589;SDS011;1809;48.470;9.226;2023-07-29T09:53:43;6.00;;;2.67;;
3589;SDS011;1809;48.470;9.226;2023-07-29T09:56:12;3.37;;;3.10;;
3589;SDS011;1809;48.470;9.226;2023-07-29T09:58:38;3.37;;;3.07;;
3589;SDS011;1809;48.470;9.226;2023-07-29T10:01:07;3.60;;;3.30;;
3589;SDS011;1809;48.470;9.226;2023-07-29T10:03:33;2.93;;;2.83;;
3589;SDS011;1809;48.470;9.226;2023-07-29T10:06:04;4.00;;;2.70;;
3589;SDS011;1809;48.470;9.226;2023-07-29T10:08:31;3.10;;;3.00;;
3589;SDS011;1809;48.470;9.226;2023-07-29T10:11:09;3.30;;;3.10;;
3589;SDS011;1809;48.470;9.226;2023-07-29T10:13:36;4.67;;;3.10;;
3589;SDS011;1809;48.470;9.226;2023-07-29T10:16:02;3.10;;;2.93;;
3589;SDS011;1809;48.470;9.226;2023-07-29T10:18:29;2.70;;;2.50;;
3589;SDS011;1809;48.470;9.226;2023-07-29T10:20:56;4.00;;;2.70;;
3589;SDS011;1809;48.470;9.226;2023-07-29T10:23:22;3.93;;;2.90;;
3589;SDS011;1809;48.470;9.226;2023-07-29T10:25:54;3.23;;;3.13;;
3589;SDS011;1809;48.470;9.226;2023-07-29T10:28:24;3.20;;;3.00;;
3589;SDS011;1809;48.470;9.226;2023-07-29T10:30:51;3.53;;;3.10;;
3589;SDS011;1809;48.470;9.226;2023-07-29T10:33:17;5.07;;;3.10;;
3589;SDS011;1809;48.470;9.226;2023-07-29T10:35:42;3.13;;;2.50;;
3589;SDS011;1809;48.470;9.226;2023-07-29T10:38:08;3.60;;;3.30;;
3589;SDS011;1809;48.470;9.226;2023-07-29T10:40:54;5.60;;;3.80;;
3589;SDS011;1809;48.470;9.226;2023-07-29T10:46:14;2.60;;;2.50;;
3589;SDS011;1809;48.470;9.226;2023-07-29T10:51:23;3.43;;;3.23;;
3589;SDS011;1809;48.470;9.226;2023-07-29T10:53:57;3.13;;;2.83;;
3589;SDS011;1809;48.470;9.226;2023-07-29T10:56:32;3.60;;;3.30;;
3589;SDS011;1809;48.470;9.226;2023-07-29T10:58:59;2.70;;;2.50;;
3589;SDS011;1809;48.470;9.226;2023-07-29T11:01:54;4.80;;;2.87;;
3589;SDS011;1809;48.470;9.226;2023-07-29T11:15:47;6.00;;;2.20;;
3589;SDS011;1809;48.470;9.226;2023-07-29T11:17:50;2.90;;;2.70;;
3589;SDS011;1809;48.470;9.226;2023-07-29T11:20:27;4.30;;;3.47;;
3589;SDS011;1809;48.470;9.226;2023-07-29T11:22:57;2.80;;;2.70;;
3589;SDS011;1809;48.470;9.226;2023-07-29T11:25:24;2.53;;;2.43;;
3589;SDS011;1809;48.470;9.226;2023-07-29T11:27:51;2.90;;;2.70;;
3589;SDS011;1809;48.470;9.226;2023-07-29T11:30:18;2.70;;;2.50;;
3589;SDS011;1809;48.470;9.226;2023-07-29T11:32:44;3.53;;;2.40;;
3589;SDS011;1809;48.470;9.226;2023-07-29T11:35:11;2.80;;;2.70;;
3589;SDS011;1809;48.470;9.226;2023-07-29T11:37:42;3.63;;;2.90;;
3589;SDS011;1809;48.470;9.226;2023-07-29T11:40:20;2.70;;;2.60;;
3589;SDS011;1809;48.470;9.226;2023-07-29T11:42:47;3.83;;;2.30;;
3589;SDS011;1809;48.470;9.226;2023-07-29T11:45:15;2.30;;;2.10;;
3589;SDS011;1809;48.470;9.226;2023-07-29T11:47:41;2.70;;;2.50;;
3589;SDS011;1809;48.470;9.226;2023-07-29T11:50:07;2.77;;;2.57;;
3589;SDS011;1809;48.470;9.226;2023-07-29T11:52:34;2.80;;;2.70;;
3589;SDS011;1809;48.470;9.226;2023-07-29T11:55:01;7.00;;;2.43;;
3589;SDS011;1809;48.470;9.226;2023-07-29T11:57:32;3.60;;;3.30;;
3589;SDS011;1809;48.470;9.226;2023-07-29T12:00:04;2.10;;;2.00;;
3589;SDS011;1809;48.470;9.226;2023-07-29T12:02:31;3.40;;;1.90;;
3589;SDS011;1809;48.470;9.226;2023-07-29T12:04:58;1.70;;;1.63;;
3589;SDS011;1809;48.470;9.226;2023-07-29T12:07:24;2.20;;;2.10;;
3589;SDS011;1809;48.470;9.226;2023-07-29T12:09:50;1.60;;;1.50;;
3589;SDS011;1809;48.470;9.226;2023-07-29T12:12:15;2.37;;;2.17;;
3589;SDS011;1809;48.470;9.226;2023-07-29T12:14:43;2.40;;;2.20;;
3589;SDS011;1809;48.470;9.226;2023-07-29T12:17:10;2.10;;;2.00;;
3589;SDS011;1809;48.470;9.226;2023-07-29T12:19:42;1.77;;;1.67;;
3589;SDS011;1809;48.470;9.226;2023-07-29T12:22:10;2.10;;;2.00;;
3589;SDS011;1809;48.470;9.226;2023-07-29T12:24:40;2.00;;;1.90;;
3589;SDS011;1809;48.470;9.226;2023-07-29T12:27:10;1.93;;;1.83;;
3589;SDS011;1809;48.470;9.226;2023-07-29T12:29:40;2.10;;;2.00;;
3589;SDS011;1809;48.470;9.226;2023-07-29T12:32:07;1.70;;;1.63;;
3589;SDS011;1809;48.470;9.226;2023-07-29T12:34:32;2.33;;;1.90;;
3589;SDS011;1809;48.470;9.226;2023-07-29T12:36:58;4.83;;;2.13;;
3589;SDS011;1809;48.470;9.226;2023-07-29T12:39:28;2.50;;;2.40;;
3589;SDS011;1809;48.470;9.226;2023-07-29T12:41:55;2.40;;;2.30;;
3589;SDS011;1809;48.470;9.226;2023-07-29T12:44:22;2.53;;;2.33;;
3589;SDS011;1809;48.470;9.226;2023-07-29T12:46:49;2.93;;;2.83;;
3589;SDS011;1809;48.470;9.226;2023-07-29T12:49:14;1.90;;;1.80;;
3589;SDS011;1809;48.470;9.226;2023-07-29T12:51:40;3.20;;;3.00;;
3589;SDS011;1809;48.470;9.226;2023-07-29T12:54:05;2.20;;;2.10;;
3589;SDS011;1809;48.470;9.226;2023-07-29T12:56:31;2.33;;;2.23;;
3589;SDS011;1809;48.470;9.226;2023-07-29T12:58:57;2.33;;;2.23;;
3589;SDS011;1809;48.470;9.226;2023-07-29T13:01:24;2.50;;;2.40;;
3589;SDS011;1809;48.470;9.226;2023-07-29T13:03:49;2.70;;;2.60;;
3589;SDS011;1809;48.470;9.226;2023-07-29T13:06:18;2.67;;;2.57;;
3589;SDS011;1809;48.470;9.226;2023-07-29T13:08:43;3.40;;;3.20;;
3589;SDS011;1809;48.470;9.226;2023-07-29T13:11:09;2.93;;;2.77;;
3589;SDS011;1809;48.470;9.226;2023-07-29T13:13:35;3.10;;;2.83;;
3589;SDS011;1809;48.470;9.226;2023-07-29T13:16:01;3.20;;;3.00;;
3589;SDS011;1809;48.470;9.226;2023-07-29T13:18:26;2.57;;;2.47;;
3589;SDS011;1809;48.470;9.226;2023-07-29T13:20:52;2.43;;;2.33;;
3589;SDS011;1809;48.470;9.226;2023-07-29T13:23:17;5.50;;;2.53;;
3589;SDS011;1809;48.470;9.226;2023-07-29T13:25:42;3.97;;;2.83;;
3589;SDS011;1809;48.470;9.226;2023-07-29T13:28:09;2.80;;;2.63;;
3589;SDS011;1809;48.470;9.226;2023-07-29T13:30:35;2.63;;;2.53;;
3589;SDS011;1809;48.470;9.226;2023-07-29T13:33:00;2.70;;;2.60;;
3589;SDS011;1809;48.470;9.226;2023-07-29T13:35:26;2.70;;;2.60;;
3589;SDS011;1809;48.470;9.226;2023-07-29T13:37:52;2.10;;;2.00;;
3589;SDS011;1809;48.470;9.226;2023-07-29T13:40:17;2.70;;;2.60;;
3589;SDS011;1809;48.470;9.226;2023-07-29T13:42:42;2.63;;;2.53;;
3589;SDS011;1809;48.470;9.226;2023-07-29T13:45:08;2.90;;;2.80;;
3589;SDS011;1809;48.470;9.226;2023-07-29T13:47:33;2.93;;;2.73;;
3589;SDS011;1809;48.470;9.226;2023-07-29T13:49:59;2.17;;;2.07;;
3589;SDS011;1809;48.470;9.226;2023-07-29T13:52:25;2.53;;;2.33;;
3589;SDS011;1809;48.470;9.226;2023-07-29T13:54:50;2.80;;;2.70;;
3589;SDS011;1809;48.470;9.226;2023-07-29T13:57:16;2.50;;;2.40;;
3589;SDS011;1809;48.470;9.226;2023-07-29T13:59:41;2.40;;;2.30;;
3589;SDS011;1809;48.470;9.226;2023-07-29T14:02:07;2.83;;;2.60;;
3589;SDS011;1809;48.470;9.226;2023-07-29T14:04:33;4.63;;;2.63;;
3589;SDS011;1809;48.470;9.226;2023-07-29T14:06:58;2.93;;;2.83;;
3589;SDS011;1809;48.470;9.226;2023-07-29T14:09:25;3.00;;;2.80;;
3589;SDS011;1809;48.470;9.226;2023-07-29T14:11:51;2.50;;;2.40;;
3589;SDS011;1809;48.470;9.226;2023-07-29T14:14:16;2.07;;;2.07;;
3589;SDS011;1809;48.470;9.226;2023-07-29T14:16:41;2.53;;;2.33;;
3589;SDS011;1809;48.470;9.226;2023-07-29T14:19:07;2.77;;;2.67;;
3589;SDS011;1809;48.470;9.226;2023-07-29T14:21:32;2.43;;;2.33;;
3589;SDS011;1809;48.470;9.226;2023-07-29T14:23:57;3.13;;;2.97;;
3589;SDS011;1809;48.470;9.226;2023-07-29T14:26:23;2.73;;;2.63;;
3589;SDS011;1809;48.470;9.226;2023-07-29T14:28:48;3.00;;;2.83;;
3589;SDS011;1809;48.470;9.226;2023-07-29T14:31:14;2.83;;;2.63;;
3589;SDS011;1809;48.470;9.226;2023-07-29T14:33:41;2.83;;;2.73;;
3589;SDS011;1809;48.470;9.226;2023-07-29T14:36:07;2.70;;;2.40;;
3589;SDS011;1809;48.470;9.226;2023-07-29T14:38:32;2.47;;;2.37;;
3589;SDS011;1809;48.470;9.226;2023-07-29T14:40:58;3.03;;;2.83;;
3589;SDS011;1809;48.470;9.226;2023-07-29T14:43:23;2.70;;;2.50;;
3589;SDS011;1809;48.470;9.226;2023-07-29T14:45:49;3.17;;;2.67;;
3589;SDS011;1809;48.470;9.226;2023-07-29T14:48:14;3.47;;;2.77;;
3589;SDS011;1809;48.470;9.226;2023-07-29T14:50:40;2.60;;;2.50;;
3589;SDS011;1809;48.470;9.226;2023-07-29T14:53:06;3.00;;;2.90;;
3589;SDS011;1809;48.470;9.226;2023-07-29T14:55:31;2.90;;;2.70;;
3589;SDS011;1809;48.470;9.226;2023-07-29T14:57:56;3.00;;;2.00;;
3589;SDS011;1809;48.470;9.226;2023-07-29T15:00:22;2.87;;;2.67;;
3589;SDS011;1809;48.470;9.226;2023-07-29T15:02:47;2.50;;;2.30;;
3589;SDS011;1809;48.470;9.226;2023-07-29T15:05:16;2.43;;;2.33;;
3589;SDS011;1809;48.470;9.226;2023-07-29T15:07:41;2.37;;;2.27;;
3589;SDS011;1809;48.470;9.226;2023-07-29T15:10:07;3.07;;;2.87;;
3589;SDS011;1809;48.470;9.226;2023-07-29T15:12:35;9.83;;;2.50;;
3589;SDS011;1809;48.470;9.226;2023-07-29T15:15:00;3.10;;;2.90;;
3589;SDS011;1809;48.470;9.226;2023-07-29T15:17:26;2.20;;;2.10;;
3589;SDS011;1809;48.470;9.226;2023-07-29T15:19:51;2.70;;;2.60;;
3589;SDS011;1809;48.470;9.226;2023-07-29T15:22:17;2.50;;;2.40;;
3589;SDS011;1809;48.470;9.226;2023-07-29T15:24:48;2.50;;;2.17;;
3589;SDS011;1809;48.470;9.226;2023-07-29T15:27:13;2.60;;;2.50;;
3589;SDS011;1809;48.470;9.226;2023-07-29T15:29:41;2.07;;;2.00;;
3589;SDS011;1809;48.470;9.226;2023-07-29T15:32:06;3.07;;;2.87;;
3589;SDS011;1809;48.470;9.226;2023-07-29T15:34:32;2.13;;;2.03;;
3589;SDS011;1809;48.470;9.226;2023-07-29T15:36:57;2.20;;;2.10;;